Time;durP1;ratioP1;P1;durP2;ratioP2;P2;SDS_P1;SDS_P2;PMS_P1;PMS_P2;Temp;Humidity;BMP_temperature;BMP_pressure;BME280_temperature;BME280_humidity;BME280_pressure;Samples;Min_cycle;Max_cycle;Signal;HPM_P1;HPM_P2
2022/11/21 05:31:10;;;;;;;10.75;3.33;;;9.80;85.60;;;;;;5552227;23;20458;-74
2022/11/21 05:33:36;;;;;;;9.13;2.00;;;9.80;85.70;;;;;;4956293;29;20114;-74
2022/11/21 05:36:02;;;;;;;10.63;2.67;;;9.90;85.70;;;;;;4956259;28;20507;-73
2022/11/21 05:38:27;;;;;;;7.43;2.53;;;9.90;85.70;;;;;;4956714;29;20028;-72
2022/11/21 05:40:53;;;;;;;5.05;2.65;;;9.90;85.90;;;;;;4955451;29;20039;-74
2022/11/21 05:46:03;;;;;;;12.77;2.67;;;9.90;86.10;;;;;;4937922;29;20043;-72
2022/11/21 05:48:28;;;;;;;6.72;1.92;;;10.00;86.40;;;;;;4941045;29;20384;-72
2022/11/21 05:50:54;;;;;;;9.75;2.42;;;9.90;86.50;;;;;;4956973;29;20474;-74
2022/11/21 05:53:20;;;;;;;11.05;3.40;;;10.00;86.70;;;;;;4942919;29;20034;-80
2022/11/21 05:55:46;;;;;;;6.07;2.42;;;10.10;86.80;;;;;;4936425;29;20118;-73
2022/11/21 05:58:12;;;;;;;4.00;2.00;;;10.20;86.90;;;;;;4948896;28;20060;-75
2022/11/21 06:00:38;;;;;;;13.57;2.75;;;10.20;86.80;;;;;;4943946;29;20122;-76
2022/11/21 06:05:49;;;;;;;3.63;1.92;;;10.20;87.20;;;;;;4959157;29;20518;-74
2022/11/21 06:08:15;;;;;;;2.58;1.15;;;10.30;87.20;;;;;;4960727;29;20815;-75
2022/11/21 06:10:43;;;;;;;9.35;2.08;;;10.30;87.70;;;;;;4960715;28;20487;-77
2022/11/21 06:13:20;;;;;;;14.65;2.28;;;10.30;87.60;;;;;;4955722;29;20040;-76
2022/11/21 06:16:04;;;;;;;6.35;2.25;;;10.30;87.60;;;;;;4941782;29;20024;-75
2022/11/21 06:18:32;;;;;;;6.40;2.38;;;10.40;87.70;;;;;;4956106;29;20403;-75
2022/11/21 06:21:13;;;;;;;8.15;2.03;;;10.40;87.70;;;;;;4956685;29;20039;-77
2022/11/21 06:23:39;;;;;;;15.65;2.53;;;10.50;87.70;;;;;;4960032;28;20090;-81
2022/11/21 06:26:06;;;;;;;7.57;1.73;;;10.50;87.60;;;;;;4960546;28;20074;-79
2022/11/21 06:28:35;;;;;;;9.30;2.70;;;10.50;87.60;;;;;;4959093;28;20070;-77
2022/11/21 06:31:11;;;;;;;14.35;2.00;;;10.50;87.60;;;;;;4946410;29;20111;-77
2022/11/21 06:33:37;;;;;;;8.27;1.98;;;10.50;87.40;;;;;;4941627;29;20031;-77
2022/11/21 06:36:05;;;;;;;12.05;1.65;;;10.50;87.30;;;;;;4942235;29;20031;-79
2022/11/21 06:38:31;;;;;;;12.35;2.40;;;10.50;87.30;;;;;;4953079;29;20087;-77
2022/11/21 06:40:57;;;;;;;15.38;2.30;;;10.50;87.20;;;;;;4941184;29;20027;-77
2022/11/21 06:43:23;;;;;;;10.80;2.30;;;10.60;87.10;;;;;;4942399;29;20073;-77
2022/11/21 06:45:48;;;;;;;5.97;2.08;;;10.50;86.80;;;;;;4959036;29;20030;-77
2022/11/21 06:48:14;;;;;;;10.00;1.70;;;10.50;86.90;;;;;;4958464;29;20074;-78
2022/11/21 06:50:40;;;;;;;9.35;2.00;;;10.50;86.60;;;;;;4954777;29;20030;-77
2022/11/21 06:53:06;;;;;;;7.90;2.20;;;10.50;86.70;;;;;;4955902;29;20035;-77
2022/11/21 06:55:31;;;;;;;7.90;2.58;;;10.50;86.50;;;;;;4949993;29;20031;-79
2022/11/21 06:57:59;;;;;;;9.15;2.28;;;10.50;86.50;;;;;;4954355;29;20110;-77
2022/11/21 07:00:27;;;;;;;6.72;1.70;;;10.40;86.30;;;;;;4953011;29;20490;-77
2022/11/21 07:02:53;;;;;;;7.57;2.58;;;10.50;86.40;;;;;;4953075;29;20063;-78
2022/11/21 07:05:19;;;;;;;12.68;2.65;;;10.50;86.20;;;;;;4949362;29;20021;-80
2022/11/21 07:07:44;;;;;;;15.20;2.35;;;10.40;86.20;;;;;;4940494;29;20028;-77
2022/11/21 07:10:10;;;;;;;13.23;2.38;;;10.40;86.10;;;;;;4951164;28;20111;-78
2022/11/21 07:15:20;;;;;;;11.50;2.22;;;10.50;86.10;;;;;;4936926;29;20404;-80
2022/11/21 07:17:45;;;;;;;8.88;2.80;;;10.40;86.00;;;;;;4954777;29;20036;-78
2022/11/21 07:20:12;;;;;;;4.07;2.08;;;10.50;86.20;;;;;;4949963;29;20467;-79
2022/11/21 07:22:38;;;;;;;6.13;1.90;;;10.50;85.90;;;;;;4959135;29;20078;-79
2022/11/21 07:25:04;;;;;;;12.30;2.83;;;10.40;86.10;;;;;;4955558;29;20027;-80
2022/11/21 07:27:29;;;;;;;13.50;2.45;;;10.50;86.20;;;;;;4959315;29;20027;-81
2022/11/21 07:29:57;;;;;;;15.95;2.25;;;10.50;86.10;;;;;;4958931;29;20024;-81
2022/11/21 07:32:27;;;;;;;6.78;2.38;;;10.50;86.00;;;;;;4958834;28;20054;-79
2022/11/21 07:34:52;;;;;;;8.43;2.53;;;10.40;85.60;;;;;;4946972;29;20170;-79
2022/11/21 07:37:18;;;;;;;10.90;2.05;;;10.40;85.70;;;;;;4940058;29;20079;-82
2022/11/21 07:39:44;;;;;;;8.05;2.75;;;10.40;86.00;;;;;;4956023;29;20574;-80
2022/11/21 07:42:10;;;;;;;20.65;2.80;;;10.40;85.70;;;;;;4958144;29;20031;-80
2022/11/21 07:44:35;;;;;;;9.60;3.00;;;10.50;85.80;;;;;;4956943;29;20070;-81
2022/11/21 07:47:01;;;;;;;8.88;2.35;;;10.40;85.50;;;;;;4957767;29;20051;-82
2022/11/21 07:49:27;;;;;;;4.28;1.52;;;10.40;85.70;;;;;;4959073;28;20138;-79
2022/11/21 07:51:53;;;;;;;7.15;1.70;;;10.40;85.80;;;;;;4958949;28;20480;-80
2022/11/21 07:54:18;;;;;;;10.57;3.08;;;10.50;85.50;;;;;;4942463;29;20031;-79
2022/11/21 07:56:44;;;;;;;9.82;2.63;;;10.50;85.50;;;;;;4939991;29;20035;-79
2022/11/21 07:59:10;;;;;;;7.85;1.98;;;10.50;85.40;;;;;;4939059;29;20060;-79
2022/11/21 08:01:35;;;;;;;10.63;2.45;;;10.50;85.10;;;;;;4954736;29;20031;-81
2022/11/21 08:04:01;;;;;;;11.20;2.13;;;10.50;85.40;;;;;;4956937;29;20028;-80
2022/11/21 08:06:27;;;;;;;5.22;1.55;;;10.50;85.40;;;;;;4957323;29;20535;-79
2022/11/21 08:08:53;;;;;;;6.20;2.13;;;10.50;85.00;;;;;;4958386;29;20515;-80
2022/11/21 08:11:19;;;;;;;9.80;2.22;;;10.50;85.10;;;;;;4960221;28;20024;-80
2022/11/21 08:13:44;;;;;;;6.75;1.92;;;10.50;84.90;;;;;;4957146;28;20090;-79
2022/11/21 08:16:10;;;;;;;3.70;1.40;;;10.50;85.10;;;;;;4958095;29;20020;-79
2022/11/21 08:18:36;;;;;;;8.55;1.77;;;10.50;84.70;;;;;;4957216;29;20059;-79
2022/11/21 08:21:03;;;;;;;2.40;1.30;;;10.50;84.40;;;;;;4956840;28;20055;-79
2022/11/21 08:23:29;;;;;;;1.60;1.30;;;10.50;84.70;;;;;;4957366;28;20546;-79
2022/11/21 08:25:54;;;;;;;10.95;1.95;;;10.50;84.70;;;;;;4957928;29;20090;-80
2022/11/21 08:28:20;;;;;;;3.78;1.35;;;10.50;84.90;;;;;;4957817;29;20059;-80
2022/11/21 08:30:46;;;;;;;7.38;1.83;;;10.50;85.10;;;;;;4955906;29;20043;-80
2022/11/21 08:33:11;;;;;;;9.07;2.03;;;10.50;85.70;;;;;;4957420;29;20491;-79
2022/11/21 08:35:37;;;;;;;10.77;2.80;;;10.40;85.90;;;;;;4957946;29;20030;-82
2022/11/21 08:38:04;;;;;;;7.28;2.22;;;10.30;86.00;;;;;;4958035;28;20032;-79
2022/11/21 08:40:30;;;;;;;11.77;3.28;;;10.30;86.20;;;;;;4960387;28;20031;-79
2022/11/21 08:43:04;;;;;;;8.20;2.75;;;10.30;86.70;;;;;;4938971;29;20470;-79
2022/11/21 08:45:31;;;;;;;8.82;2.45;;;10.30;86.80;;;;;;4938486;29;20054;-79
2022/11/21 08:47:57;;;;;;;11.55;2.42;;;10.30;86.90;;;;;;4938503;29;20114;-80
2022/11/21 08:50:23;;;;;;;7.75;2.47;;;10.30;86.90;;;;;;4953084;29;20059;-79
2022/11/21 08:52:49;;;;;;;8.50;1.80;;;10.20;86.60;;;;;;4946814;29;20045;-79
2022/11/21 08:55:15;;;;;;;6.03;2.25;;;10.30;87.10;;;;;;4957333;28;20106;-78
2022/11/21 08:57:41;;;;;;;4.97;1.90;;;10.30;87.10;;;;;;4956365;29;20035;-79
2022/11/21 09:00:11;;;;;;;12.60;2.20;;;10.20;87.20;;;;;;4957182;28;20042;-81
2022/11/21 09:02:37;;;;;;;15.90;2.85;;;10.20;87.50;;;;;;4955839;29;20031;-79
2022/11/21 09:05:03;;;;;;;5.35;1.38;;;10.30;87.40;;;;;;4957390;28;20031;-79
2022/11/21 09:07:29;;;;;;;6.65;2.70;;;10.30;87.30;;;;;;4957520;28;20038;-80
2022/11/21 09:09:54;;;;;;;9.43;2.25;;;10.30;87.80;;;;;;4957409;29;20452;-79
2022/11/21 09:12:20;;;;;;;9.95;2.38;;;10.30;87.70;;;;;;4952545;29;20182;-81
2022/11/21 09:20:15;;;;;;;8.40;2.50;;;10.40;87.80;;;;;;4957516;29;20090;-78
2022/11/21 09:22:41;;;;;;;6.35;2.55;;;10.40;87.90;;;;;;4953354;29;20035;-79
2022/11/21 09:25:07;;;;;;;4.78;2.17;;;10.40;87.90;;;;;;4956631;28;20026;-78
2022/11/21 09:27:32;;;;;;;7.88;2.30;;;10.50;87.90;;;;;;4957334;28;20027;-79
2022/11/21 09:29:58;;;;;;;4.00;1.80;;;10.50;87.80;;;;;;4957179;29;20026;-79
2022/11/21 09:32:24;;;;;;;6.30;1.95;;;10.50;87.70;;;;;;4956976;28;20059;-79
2022/11/21 09:34:49;;;;;;;6.82;2.15;;;10.40;88.00;;;;;;4957990;28;20098;-79
2022/11/21 09:37:15;;;;;;;2.15;1.38;;;10.50;88.10;;;;;;4961361;29;20805;-78
2022/11/21 09:39:41;;;;;;;3.50;1.15;;;10.40;88.00;;;;;;4960423;29;20031;-79
2022/11/21 09:42:18;;;;;;;3.08;1.17;;;10.50;88.20;;;;;;4959779;29;20543;-79
2022/11/21 09:45:06;;;;;;;6.22;1.23;;;10.50;88.10;;;;;;4959997;29;20028;-79
2022/11/21 09:47:36;;;;;;;2.20;1.00;;;10.50;88.30;;;;;;4960976;28;20064;-80
2022/11/21 09:50:13;;;;;;;2.10;1.13;;;10.50;88.30;;;;;;4948347;29;20039;-79
2022/11/21 09:52:40;;;;;;;8.13;1.92;;;10.60;88.20;;;;;;4944393;29;20373;-79
2022/11/21 09:55:44;;;;;;;7.28;2.05;;;10.60;88.40;;;;;;4941619;29;20028;-79
2022/11/21 09:58:28;;;;;;;5.30;1.60;;;10.60;88.20;;;;;;4944973;29;20027;-79
2022/11/21 10:00:54;;;;;;;2.92;1.20;;;10.60;88.30;;;;;;4960505;28;20027;-79
2022/11/21 10:03:24;;;;;;;3.47;1.70;;;10.60;88.60;;;;;;4960714;29;20058;-80
2022/11/21 10:05:58;;;;;;;;;;;10.60;88.60;;;;;;4958268;28;20019;-79
2022/11/21 10:08:40;;;;;;;2.72;1.17;;;10.70;88.40;;;;;;4941596;29;19910;-80
2022/11/21 10:11:27;;;;;;;1.50;1.40;;;10.70;88.40;;;;;;4944910;29;20039;-79
2022/11/21 10:14:08;;;;;;;3.30;1.13;;;10.70;88.60;;;;;;4956433;29;20039;-80
2022/11/21 10:16:44;;;;;;;2.58;1.75;;;10.80;88.60;;;;;;4959364;29;20031;-80
2022/11/21 10:19:24;;;;;;;2.58;1.48;;;10.80;88.50;;;;;;4960429;28;20031;-80
2022/11/21 10:22:02;;;;;;;2.58;1.45;;;10.80;88.50;;;;;;4959937;28;20053;-79
2022/11/21 10:24:51;;;;;;;2.17;1.63;;;10.80;88.50;;;;;;4960156;29;20027;-80
2022/11/21 10:27:33;;;;;;;3.47;1.33;;;10.90;88.60;;;;;;4958985;29;20027;-79
2022/11/21 10:30:06;;;;;;;3.10;1.10;;;10.80;88.70;;;;;;4941348;29;20078;-80
2022/11/21 10:32:42;;;;;;;1.77;0.75;;;10.90;88.70;;;;;;4940988;29;20439;-78
2022/11/21 10:35:49;;;;;;;3.00;0.85;;;11.00;88.70;;;;;;4939688;29;20027;-79
2022/11/21 10:38:22;;;;;;;1.60;1.05;;;11.00;88.90;;;;;;4933455;29;20422;-78
2022/11/21 10:40:56;;;;;;;3.35;1.17;;;11.00;88.90;;;;;;4940983;29;20451;-79
2022/11/21 10:46:31;;;;;;;0.98;0.82;;;11.20;89.10;;;;;;4928606;29;20137;-79
2022/11/21 10:49:02;;;;;;;1.25;0.93;;;11.20;89.20;;;;;;4959900;29;20062;-80
2022/11/21 10:51:49;;;;;;;1.25;0.90;;;11.20;89.20;;;;;;4974350;28;20135;-80
2022/11/21 10:54:34;;;;;;;7.00;1.45;;;11.30;89.20;;;;;;4955328;29;20020;-79
2022/11/21 10:57:13;;;;;;;1.98;0.90;;;11.40;89.20;;;;;;4939166;29;20488;-80
2022/11/21 10:59:39;;;;;;;4.18;1.77;;;11.50;89.20;;;;;;4955992;29;20110;-80
2022/11/21 11:02:11;;;;;;;2.28;1.33;;;11.60;88.90;;;;;;4958170;29;20063;-80
2022/11/21 11:04:38;;;;;;;4.60;1.40;;;11.70;89.00;;;;;;4959352;29;20117;-80
2022/11/21 11:07:25;;;;;;;5.22;1.83;;;11.70;88.90;;;;;;4958471;29;20085;-80
2022/11/21 11:09:51;;;;;;;5.22;1.45;;;11.80;88.80;;;;;;4958403;29;20090;-80
2022/11/21 11:15:17;;;;;;;4.15;1.67;;;11.90;88.60;;;;;;4958781;29;20090;-80
2022/11/21 11:17:48;;;;;;;9.82;1.85;;;11.90;88.60;;;;;;4952804;28;20035;-79
2022/11/21 11:20:42;;;;;;;3.53;1.23;;;12.00;88.70;;;;;;4942117;28;20023;-79
2022/11/21 11:23:21;;;;;;;7.10;2.17;;;11.90;88.90;;;;;;4939760;29;20028;-78
2022/11/21 11:25:51;;;;;;;3.53;1.00;;;11.90;88.40;;;;;;4955019;29;20039;-79
2022/11/21 11:28:22;;;;;;;3.75;1.50;;;12.00;88.40;;;;;;4959136;28;20035;-80
2022/11/21 11:30:50;;;;;;;4.55;1.60;;;12.00;88.20;;;;;;4955272;28;20051;-79
2022/11/21 11:33:37;;;;;;;6.20;1.42;;;12.20;88.20;;;;;;4940283;29;20023;-80
2022/11/21 11:36:20;;;;;;;10.40;1.58;;;12.30;87.80;;;;;;4957495;29;20526;-79
2022/11/21 11:38:58;;;;;;;4.57;1.20;;;12.40;87.50;;;;;;4957295;29;20027;-79
2022/11/21 11:48:11;;;;;;;9.70;1.60;;;12.50;86.50;;;;;;4958361;29;20043;-80
2022/11/21 11:50:55;;;;;;;8.85;1.52;;;12.50;86.10;;;;;;4956487;29;20289;-80
2022/11/21 11:53:26;;;;;;;8.93;1.52;;;12.50;85.70;;;;;;4954409;29;20530;-80
2022/11/21 11:56:15;;;;;;;12.10;1.27;;;12.50;85.40;;;;;;4958103;28;20051;-80
2022/11/21 11:58:44;;;;;;;10.15;1.92;;;12.50;85.00;;;;;;4957255;29;20043;-79
2022/11/21 12:01:12;;;;;;;12.32;1.85;;;12.50;84.60;;;;;;4958485;29;20058;-80
2022/11/21 12:03:55;;;;;;;5.85;1.60;;;12.50;84.70;;;;;;4957176;29;20067;-80
2022/11/21 12:06:25;;;;;;;10.95;1.48;;;12.50;84.00;;;;;;4957961;28;20031;-80
2022/11/21 12:08:57;;;;;;;7.35;1.98;;;12.40;83.40;;;;;;4958415;28;20023;-80
2022/11/21 12:12:07;;;;;;;10.80;1.77;;;12.50;83.70;;;;;;4956231;29;20039;-80
2022/11/21 12:17:39;;;;;;;13.18;1.80;;;12.60;83.10;;;;;;4953523;29;20078;-79
2022/11/21 12:20:29;;;;;;;11.35;1.55;;;12.60;82.80;;;;;;4939249;29;20524;-77
2022/11/21 12:22:56;;;;;;;11.05;2.08;;;12.70;82.40;;;;;;4939796;29;20024;-79
2022/11/21 12:25:31;;;;;;;9.55;1.80;;;12.70;81.60;;;;;;4954033;29;20024;-79
2022/11/21 12:27:57;;;;;;;13.07;1.90;;;12.80;81.40;;;;;;4958069;29;20479;-77
2022/11/21 12:30:41;;;;;;;13.43;1.92;;;12.80;80.70;;;;;;4958230;29;20030;-77
2022/11/21 12:33:21;;;;;;;10.45;1.67;;;12.80;80.70;;;;;;4957461;29;20086;-77
2022/11/21 12:36:15;;;;;;;14.07;2.25;;;12.80;79.80;;;;;;4956707;29;20031;-76
2022/11/21 12:38:59;;;;;;;10.02;1.73;;;12.80;78.80;;;;;;4953093;29;20087;-77
2022/11/21 12:45:00;;;;;;;11.57;1.73;;;12.70;77.80;;;;;;4938487;29;20042;-83
2022/11/21 12:54:29;;;;;;;9.25;1.63;;;12.40;76.60;;;;;;4879454;29;20037;-77
2022/11/21 12:57:01;;;;;;;8.57;1.85;;;12.40;76.60;;;;;;4879277;29;20453;-77
2022/11/21 12:59:30;;;;;;;16.38;2.22;;;12.60;75.90;;;;;;4917195;29;20499;-77
2022/11/21 13:02:06;;;;;;;11.10;2.27;;;12.60;75.90;;;;;;4940073;29;20493;-77
2022/11/21 13:04:36;;;;;;;8.43;1.35;;;12.70;75.50;;;;;;4957118;28;20015;-77
2022/11/21 13:07:03;;;;;;;6.72;1.83;;;12.70;75.80;;;;;;4956247;29;20035;-77
2022/11/21 13:09:36;;;;;;;5.75;1.63;;;12.70;74.40;;;;;;4957214;28;20034;-77
2022/11/21 13:12:08;;;;;;;11.35;2.35;;;12.70;75.30;;;;;;4955177;28;20035;-77
2022/11/21 13:14:40;;;;;;;10.43;3.58;;;12.70;75.60;;;;;;4956594;28;20031;-77
2022/11/21 13:17:21;;;;;;;11.07;2.17;;;12.80;75.50;;;;;;4956350;29;20035;-77
2022/11/21 13:20:14;;;;;;;5.82;1.50;;;12.80;75.50;;;;;;4956646;29;20376;-77
2022/11/21 13:22:40;;;;;;;15.70;2.53;;;12.80;74.70;;;;;;4957392;28;20027;-77
2022/11/21 13:25:11;;;;;;;6.50;1.45;;;12.80;74.20;;;;;;4956897;29;20163;-78
2022/11/21 13:27:41;;;;;;;5.60;1.42;;;12.80;74.20;;;;;;4957227;28;20031;-77
2022/11/21 13:30:07;;;;;;;5.78;1.23;;;12.60;74.10;;;;;;4946370;28;20016;-77
2022/11/21 13:32:59;;;;;;;3.50;1.60;;;12.40;74.40;;;;;;4965339;28;20055;-77
2022/11/21 13:35:25;;;;;;;5.55;1.48;;;12.30;74.60;;;;;;4954349;29;20103;-77
2022/11/21 13:38:07;;;;;;;9.82;1.60;;;12.30;74.90;;;;;;4957020;29;20035;-77
2022/11/21 13:40:35;;;;;;;8.43;1.48;;;12.20;75.40;;;;;;4957271;28;20114;-77
2022/11/21 13:43:15;;;;;;;5.13;2.22;;;12.10;75.40;;;;;;4955347;29;20023;-77
2022/11/21 13:45:48;;;;;;;13.35;2.63;;;12.20;76.40;;;;;;4957028;28;20031;-77
2022/11/21 13:48:16;;;;;;;9.77;4.28;;;12.20;75.70;;;;;;4953841;29;20058;-78
2022/11/21 13:50:59;;;;;;;10.23;3.20;;;12.30;75.20;;;;;;4955413;29;20114;-77
2022/11/21 13:53:47;;;;;;;12.02;4.57;;;12.40;74.70;;;;;;4956792;28;20023;-77
2022/11/21 13:56:40;;;;;;;9.32;2.83;;;12.50;75.30;;;;;;4955998;29;20026;-77
2022/11/21 13:59:22;;;;;;;5.85;2.50;;;12.50;74.50;;;;;;4937370;29;20116;-77
2022/11/21 14:02:18;;;;;;;7.07;2.85;;;12.50;74.40;;;;;;4936588;29;20031;-77
2022/11/21 14:05:08;;;;;;;7.93;1.58;;;12.50;74.40;;;;;;4936413;29;20083;-77
2022/11/21 14:07:37;;;;;;;8.98;1.45;;;12.50;74.80;;;;;;4936444;29;20038;-77
2022/11/21 14:10:18;;;;;;;3.78;1.00;;;12.50;74.50;;;;;;4937469;29;20071;-76
2022/11/21 14:12:48;;;;;;;9.57;1.85;;;12.60;73.60;;;;;;4955077;29;20476;-77
2022/11/21 14:15:40;;;;;;;3.83;1.55;;;12.60;74.10;;;;;;4956356;28;20447;-77
2022/11/21 14:18:23;;;;;;;7.70;1.80;;;12.60;74.60;;;;;;4913668;29;20053;-77
2022/11/21 14:20:57;;;;;;;6.30;1.65;;;12.50;74.00;;;;;;4958465;28;20035;-77
2022/11/21 14:23:32;;;;;;;5.25;1.45;;;12.50;73.50;;;;;;4959257;29;20495;-77
2022/11/21 14:26:04;;;;;;;2.72;1.23;;;12.50;73.50;;;;;;4960686;28;20053;-77
2022/11/21 14:28:32;;;;;;;11.80;1.80;;;12.50;72.50;;;;;;4960623;28;20027;-77
2022/11/21 14:31:01;;;;;;;9.43;1.42;;;12.50;73.30;;;;;;4958255;28;20047;-77
2022/11/21 14:33:31;;;;;;;6.72;1.35;;;12.40;73.00;;;;;;4960256;28;20114;-76
2022/11/21 14:36:14;;;;;;;6.97;2.13;;;12.20;72.10;;;;;;4959753;29;20030;-77
2022/11/21 14:38:45;;;;;;;5.88;1.92;;;12.20;72.30;;;;;;4959896;29;20027;-77
2022/11/21 14:41:30;;;;;;;2.90;1.27;;;12.10;71.80;;;;;;4958663;29;20134;-77
2022/11/21 14:44:00;;;;;;;2.22;1.27;;;12.00;71.50;;;;;;4959296;28;20095;-77
2022/11/21 14:46:31;;;;;;;3.05;1.48;;;12.10;71.80;;;;;;4958759;29;20024;-77
2022/11/21 14:49:14;;;;;;;6.85;1.45;;;12.10;71.90;;;;;;4959508;28;20032;-77
2022/11/21 14:51:44;;;;;;;8.38;1.50;;;12.00;70.70;;;;;;4949403;29;20028;-77
2022/11/21 14:54:21;;;;;;;8.93;1.40;;;12.00;70.80;;;;;;4943173;29;20024;-77
2022/11/21 14:56:52;;;;;;;4.07;1.05;;;11.90;70.40;;;;;;4959849;28;20517;-77
2022/11/21 14:59:25;;;;;;;7.13;1.63;;;11.90;70.10;;;;;;4959386;28;20035;-77
2022/11/21 15:01:57;;;;;;;7.25;2.03;;;11.90;70.60;;;;;;4959222;28;20028;-76
2022/11/21 15:04:35;;;;;;;5.15;1.65;;;11.80;69.60;;;;;;4959859;28;20106;-76
2022/11/21 15:07:01;;;;;;;3.00;1.52;;;11.70;69.90;;;;;;4958461;29;20055;-77
2022/11/21 15:09:28;;;;;;;4.28;1.50;;;11.80;69.10;;;;;;4958377;29;20034;-77
2022/11/21 15:12:05;;;;;;;3.15;0.98;;;11.80;69.00;;;;;;4954126;29;20039;-77
2022/11/21 15:14:53;;;;;;;4.82;1.08;;;11.60;68.00;;;;;;4957107;29;20067;-76
2022/11/21 15:17:22;;;;;;;3.33;0.80;;;11.70;69.20;;;;;;4959312;28;20118;-77
2022/11/21 15:20:03;;;;;;;0.90;0.60;;;11.70;68.70;;;;;;4959578;28;20103;-77
2022/11/21 15:22:34;;;;;;;2.80;0.85;;;11.60;68.80;;;;;;4956437;28;20098;-76
2022/11/21 15:25:14;;;;;;;3.45;0.88;;;11.40;69.90;;;;;;4954911;29;20051;-76
2022/11/21 15:27:40;;;;;;;2.90;1.02;;;11.30;70.60;;;;;;4959367;28;20361;-76
2022/11/21 15:30:21;;;;;;;2.45;0.93;;;11.30;69.80;;;;;;4957207;29;20039;-76
2022/11/21 15:33:12;;;;;;;1.55;1.10;;;11.20;69.40;;;;;;4937586;29;20055;-76
2022/11/21 15:35:41;;;;;;;1.48;0.60;;;11.10;68.50;;;;;;4940205;29;20079;-76
2022/11/21 15:38:41;;;;;;;4.45;1.00;;;11.10;69.40;;;;;;4957717;29;20058;-77
2022/11/21 15:41:07;;;;;;;1.48;0.93;;;11.00;68.80;;;;;;4938528;29;20035;-76
2022/11/21 15:43:42;;;;;;;2.22;1.25;;;11.00;69.60;;;;;;4953660;29;20031;-77
2022/11/21 15:46:18;;;;;;;2.33;1.30;;;11.00;68.90;;;;;;4958648;29;20027;-77
2022/11/21 15:48:51;;;;;;;2.33;1.17;;;11.00;70.70;;;;;;4957513;29;20031;-76
2022/11/21 15:51:18;;;;;;;4.30;1.40;;;11.00;71.00;;;;;;4957638;29;20045;-76
2022/11/21 15:53:44;;;;;;;4.28;1.30;;;11.00;70.80;;;;;;4958459;28;20035;-77
2022/11/21 15:56:15;;;;;;;4.68;1.27;;;10.90;71.10;;;;;;4953771;29;20440;-76
2022/11/21 15:58:41;;;;;;;2.22;1.10;;;10.90;71.60;;;;;;4939486;29;20039;-76
2022/11/21 16:01:18;;;;;;;4.97;1.30;;;10.90;71.70;;;;;;4939538;29;20118;-76
2022/11/21 16:03:44;;;;;;;4.57;1.42;;;10.90;71.70;;;;;;4954165;29;20090;-76
2022/11/21 16:06:11;;;;;;;2.50;1.48;;;10.80;72.40;;;;;;4953535;29;20056;-76
2022/11/21 16:08:38;;;;;;;5.65;1.25;;;10.80;72.10;;;;;;4954026;29;20055;-77
2022/11/21 16:11:03;;;;;;;4.72;1.50;;;10.80;72.40;;;;;;4947014;29;20026;-76
2022/11/21 16:13:29;;;;;;;5.55;1.58;;;10.70;72.80;;;;;;4956724;29;20066;-76
2022/11/21 16:15:55;;;;;;;4.80;1.63;;;10.80;72.40;;;;;;4956337;29;20024;-77
2022/11/21 16:18:20;;;;;;;4.88;1.70;;;10.80;73.00;;;;;;4958228;29;20045;-76
2022/11/21 16:20:46;;;;;;;5.95;1.60;;;10.70;72.80;;;;;;4956958;29;20020;-76
2022/11/21 16:23:11;;;;;;;6.18;2.63;;;10.60;73.00;;;;;;4957667;29;20040;-76
2022/11/21 16:25:48;;;;;;;7.65;1.95;;;10.60;73.60;;;;;;4948668;29;20083;-76
2022/11/21 16:28:14;;;;;;;4.03;1.77;;;10.60;74.00;;;;;;4939357;29;20115;-76
2022/11/21 16:30:40;;;;;;;4.25;2.05;;;10.50;73.70;;;;;;4938525;29;20051;-76
2022/11/21 16:33:05;;;;;;;8.13;3.33;;;10.50;73.80;;;;;;4938526;29;20066;-76
2022/11/21 16:35:31;;;;;;;5.85;2.42;;;10.50;73.40;;;;;;4939290;29;20034;-77
2022/11/21 16:37:56;;;;;;;5.35;1.80;;;10.40;73.80;;;;;;4939102;29;20047;-76
2022/11/21 16:40:22;;;;;;;5.30;2.05;;;10.40;73.50;;;;;;4939549;29;20601;-77
2022/11/21 16:42:48;;;;;;;3.88;1.77;;;10.30;73.60;;;;;;4938246;29;20047;-77
2022/11/21 16:45:13;;;;;;;2.15;1.55;;;10.30;73.20;;;;;;4938488;29;20059;-76
2022/11/21 16:47:39;;;;;;;6.28;1.63;;;10.20;73.70;;;;;;4938846;29;20051;-76
2022/11/21 16:50:05;;;;;;;2.80;1.65;;;10.20;73.30;;;;;;4947258;29;20024;-76
2022/11/21 16:52:34;;;;;;;5.60;2.03;;;10.20;74.10;;;;;;4957338;28;20027;-76
2022/11/21 16:55:00;;;;;;;2.28;1.52;;;10.10;73.50;;;;;;4955995;29;20027;-76
2022/11/21 16:57:26;;;;;;;2.63;1.75;;;10.10;74.40;;;;;;4957298;29;20787;-77
2022/11/21 16:59:52;;;;;;;5.82;1.83;;;10.00;74.50;;;;;;4956865;28;20028;-77
2022/11/21 17:02:18;;;;;;;3.65;1.95;;;10.00;74.20;;;;;;4951376;28;20045;-76
2022/11/21 17:04:51;;;;;;;3.75;2.05;;;9.90;74.30;;;;;;4942934;29;20079;-76
2022/11/21 17:07:16;;;;;;;4.00;2.40;;;9.90;74.40;;;;;;4938414;29;20452;-77
2022/11/21 17:09:42;;;;;;;4.22;1.90;;;9.90;74.10;;;;;;4938861;29;20028;-77
2022/11/21 17:12:08;;;;;;;3.75;2.05;;;9.80;74.40;;;;;;4956258;29;20102;-76
2022/11/21 17:14:33;;;;;;;3.85;1.90;;;9.80;74.10;;;;;;4953593;28;20562;-79
2022/11/21 17:16:59;;;;;;;6.95;1.73;;;9.70;74.10;;;;;;4951966;28;20039;-78
2022/11/21 17:19:24;;;;;;;3.80;1.83;;;9.80;74.60;;;;;;4959992;28;20023;-79
2022/11/21 17:21:53;;;;;;;6.00;2.30;;;9.80;74.60;;;;;;4962877;28;20069;-82
2022/11/21 17:24:19;;;;;;;7.22;2.65;;;9.80;74.50;;;;;;4962459;28;20018;-83
2022/11/21 17:26:44;;;;;;;4.85;2.00;;;9.70;74.00;;;;;;4956249;28;20118;-82
2022/11/21 17:29:10;;;;;;;4.05;2.30;;;9.70;74.10;;;;;;4953636;29;20032;-78
2022/11/21 17:31:36;;;;;;;4.80;2.80;;;9.70;74.10;;;;;;4957351;28;20519;-81
2022/11/21 17:34:01;;;;;;;2.58;1.52;;;9.70;73.40;;;;;;4966155;28;20482;-81
2022/11/21 17:36:29;;;;;;;4.68;2.53;;;9.60;72.90;;;;;;4953379;28;20045;-79
2022/11/21 17:38:57;;;;;;;2.88;1.60;;;9.50;73.90;;;;;;4955825;28;20027;-79
2022/11/21 17:41:24;;;;;;;4.82;1.90;;;9.50;73.30;;;;;;4960816;28;20063;-80
2022/11/21 17:43:53;;;;;;;7.43;2.50;;;9.30;73.40;;;;;;4957008;28;20106;-81
2022/11/21 17:46:19;;;;;;;6.88;2.13;;;9.30;73.20;;;;;;4954132;28;20036;-81
2022/11/21 17:48:46;;;;;;;3.67;1.92;;;9.30;73.70;;;;;;4965088;28;20034;-79
2022/11/21 17:51:15;;;;;;;6.38;1.98;;;9.30;73.70;;;;;;4959492;28;20019;-81
2022/11/21 17:53:42;;;;;;;4.93;2.03;;;9.30;73.60;;;;;;4959572;28;20027;-84
2022/11/21 17:56:17;;;;;;;2.92;1.70;;;9.30;73.60;;;;;;4949499;28;20760;-79
2022/11/21 17:58:42;;;;;;;2.28;1.58;;;9.20;74.10;;;;;;4961053;28;20032;-82
2022/11/21 18:01:12;;;;;;;4.85;2.25;;;9.20;74.00;;;;;;4955639;28;20048;-80
2022/11/21 18:03:39;;;;;;;4.60;1.67;;;9.20;74.10;;;;;;4967096;28;20019;-80
2022/11/21 18:06:10;;;;;;;7.55;2.35;;;9.20;73.90;;;;;;4967119;28;20215;-80
2022/11/21 18:08:38;;;;;;;4.80;1.90;;;9.20;73.50;;;;;;4967379;28;20026;-79
2022/11/21 18:11:06;;;;;;;8.27;2.17;;;9.20;73.70;;;;;;4960095;28;20028;-77
2022/11/21 18:13:33;;;;;;;7.45;2.03;;;9.20;73.50;;;;;;4966552;28;20032;-85
2022/11/21 18:16:00;;;;;;;4.15;1.55;;;9.10;73.90;;;;;;4964690;28;20059;-77
2022/11/21 18:18:26;;;;;;;3.85;2.10;;;9.10;73.80;;;;;;4965475;28;20392;-75
2022/11/21 18:20:51;;;;;;;3.50;1.88;;;9.10;73.80;;;;;;4965497;28;20042;-74
2022/11/21 18:23:17;;;;;;;5.28;1.95;;;9.10;73.70;;;;;;4964625;28;20035;-80
2022/11/21 18:25:43;;;;;;;2.45;1.58;;;9.10;73.70;;;;;;4964305;28;20709;-85
2022/11/21 18:28:08;;;;;;;7.80;1.80;;;9.10;73.40;;;;;;4964317;28;20058;-79
2022/11/21 18:30:36;;;;;;;5.07;1.67;;;9.00;73.50;;;;;;4954879;28;20495;-83
2022/11/21 18:33:02;;;;;;;3.58;1.60;;;8.80;73.70;;;;;;4954486;29;20032;-78
2022/11/21 18:35:28;;;;;;;3.30;1.50;;;8.90;74.50;;;;;;4958628;28;20115;-77
2022/11/21 18:37:54;;;;;;;3.03;1.90;;;8.80;74.20;;;;;;4957643;29;20042;-79
2022/11/21 18:40:20;;;;;;;3.13;1.73;;;8.90;74.00;;;;;;4958052;29;20626;-80
2022/11/21 18:42:46;;;;;;;5.03;2.00;;;8.90;74.20;;;;;;4941487;29;20095;-79
2022/11/21 18:45:12;;;;;;;4.22;1.48;;;8.90;73.60;;;;;;4962196;29;20046;-79
2022/11/21 18:47:39;;;;;;;5.63;1.67;;;8.80;73.40;;;;;;4960741;29;20034;-81
2022/11/21 18:50:05;;;;;;;8.27;2.03;;;8.80;74.00;;;;;;4949253;29;20033;-79
2022/11/21 18:52:33;;;;;;;4.72;2.35;;;8.80;73.70;;;;;;4946968;29;20027;-79
2022/11/21 18:54:58;;;;;;;3.25;1.73;;;8.80;73.80;;;;;;4960772;29;20380;-78
2022/11/21 18:57:24;;;;;;;3.28;1.83;;;8.70;74.00;;;;;;4960364;29;20120;-83
2022/11/21 18:59:50;;;;;;;4.97;1.92;;;8.80;73.50;;;;;;4960110;29;20090;-82
2022/11/21 19:02:15;;;;;;;4.30;1.58;;;8.70;73.30;;;;;;4959442;29;20039;-82
2022/11/21 19:04:41;;;;;;;5.97;3.00;;;8.70;73.70;;;;;;4960037;29;20498;-84
2022/11/21 19:07:06;;;;;;;2.97;1.95;;;8.70;73.80;;;;;;4959709;28;21781;-88
2022/11/21 19:09:32;;;;;;;3.40;1.80;;;8.70;73.20;;;;;;4958193;29;20092;-79
2022/11/21 19:11:58;;;;;;;3.97;1.67;;;8.70;74.00;;;;;;4960119;29;20495;-84
2022/11/21 19:14:24;;;;;;;3.47;1.67;;;8.70;73.90;;;;;;4958659;29;20530;-84
2022/11/21 19:16:49;;;;;;;6.30;1.70;;;8.60;73.50;;;;;;4959246;28;20035;-86